Time;durP1;ratioP1;P1;durP2;ratioP2;P2;SDS_P1;SDS_P2;PMS_P1;PMS_P2;Temp;Humidity;BMP_temperature;BMP_pressure;BME280_temperature;BME280_humidity;BME280_pressure;Samples;Min_cycle;Max_cycle;Signal;HPM_P1;HPM_P2
2022/07/28 00:06:20;;;;;;;0.30;0.20;;;17.10;99.90;;;;;;6680194;88;20661;-78
2022/07/28 00:16:21;;;;;;;0.70;0.30;;;17.10;99.90;;;;;;6681971;88;20205;-78
2022/07/28 00:26:22;;;;;;;0.75;0.40;;;16.60;99.90;;;;;;6681333;88;20187;-78
2022/07/28 00:36:22;;;;;;;1.08;0.50;;;16.40;99.90;;;;;;6679333;88;20224;-78
2022/07/28 00:46:23;;;;;;;0.87;0.37;;;16.30;99.90;;;;;;6674520;88;20206;-77
2022/07/28 00:56:24;;;;;;;0.50;0.20;;;16.30;99.90;;;;;;6677165;88;20695;-77
2022/07/28 01:06:30;;;;;;;0.40;0.20;;;16.60;99.90;;;;;;6678174;88;20579;-77
2022/07/28 01:16:31;;;;;;;0.50;0.30;;;16.70;99.90;;;;;;6684159;88;20308;-77
2022/07/28 01:26:46;;;;;;;1.03;0.87;;;16.60;99.90;;;;;;6683798;88;20250;-77
2022/07/28 01:36:53;;;;;;;0.40;0.30;;;16.40;99.90;;;;;;6669704;89;20292;-77
2022/07/28 01:46:57;;;;;;;0.52;0.30;;;16.30;99.90;;;;;;6678098;88;20195;-77
2022/07/28 01:56:59;;;;;;;0.62;0.22;;;16.10;99.90;;;;;;6674056;88;20208;-77
2022/07/28 02:07:01;;;;;;;0.98;0.68;;;16.10;99.90;;;;;;6677774;89;20696;-77
2022/07/28 02:17:09;;;;;;;0.55;0.22;;;15.90;99.90;;;;;;6687249;89;20340;-77
2022/07/28 02:27:36;;;;;;;0.60;0.30;;;15.90;99.90;;;;;;6672309;89;20478;-77
2022/07/28 02:37:40;;;;;;;0.57;0.30;;;15.90;99.90;;;;;;6674091;88;20681;-77
2022/07/28 02:47:47;;;;;;;2.12;0.40;;;15.60;99.90;;;;;;6673572;89;20296;-77
2022/07/28 02:57:48;;;;;;;0.45;0.22;;;15.50;99.90;;;;;;6669789;88;20210;-77
2022/07/28 03:07:51;;;;;;;0.62;0.30;;;15.30;99.90;;;;;;6669145;89;20265;-77
2022/07/28 03:17:52;;;;;;;2.08;0.32;;;15.30;99.90;;;;;;6676179;89;20195;-77
2022/07/28 03:27:53;;;;;;;0.60;0.30;;;15.10;99.90;;;;;;6664036;89;20676;-77
2022/07/28 03:38:04;;;;;;;0.60;0.30;;;15.00;99.90;;;;;;6671079;88;20228;-77
2022/07/28 03:48:05;;;;;;;0.85;0.40;;;14.90;99.90;;;;;;6676573;88;20204;-78
2022/07/28 03:58:05;;;;;;;0.75;0.43;;;15.00;99.90;;;;;;6675684;88;20206;-77
2022/07/28 04:08:06;;;;;;;0.73;0.40;;;14.70;99.90;;;;;;6679492;88;20300;-77
2022/07/28 04:18:06;;;;;;;0.50;0.25;;;14.60;99.90;;;;;;6677017;88;20792;-76
2022/07/28 04:28:07;;;;;;;0.98;0.52;;;14.70;99.90;;;;;;6672543;89;20269;-77
2022/07/28 04:38:07;;;;;;;0.73;0.30;;;15.00;99.90;;;;;;6676373;89;20210;-77
2022/07/28 04:48:08;;;;;;;0.47;0.25;;;15.10;99.90;;;;;;6678236;88;20276;-76
2022/07/28 04:58:09;;;;;;;0.40;0.27;;;15.10;99.90;;;;;;6676539;88;20220;-77
2022/07/28 05:08:09;;;;;;;0.85;0.50;;;14.90;99.90;;;;;;6672259;89;20949;-77
2022/07/28 05:18:10;;;;;;;0.85;0.40;;;15.30;99.90;;;;;;6676593;88;20513;-76
2022/07/28 05:28:10;;;;;;;0.75;0.40;;;15.30;99.90;;;;;;6673403;88;20609;-77
2022/07/28 05:38:11;;;;;;;0.70;0.30;;;15.40;99.90;;;;;;6670893;88;20322;-77
2022/07/28 05:48:11;;;;;;;1.87;0.40;;;15.30;99.90;;;;;;6679279;89;20205;-77
2022/07/28 05:58:12;;;;;;;0.70;0.40;;;15.30;99.90;;;;;;6668122;89;20233;-77
2022/07/28 06:08:12;;;;;;;0.93;0.40;;;15.60;99.90;;;;;;6676836;89;20183;-77
2022/07/28 06:18:51;;;;;;;0.70;0.30;;;16.00;99.90;;;;;;6795764;86;20267;-77
2022/07/28 06:28:52;;;;;;;0.40;0.30;;;16.50;99.90;;;;;;6784538;87;20217;-77
2022/07/28 06:38:52;;;;;;;0.67;0.30;;;17.00;99.90;;;;;;6783894;87;20231;-77
2022/07/28 06:48:53;;;;;;;0.50;0.30;;;17.60;99.90;;;;;;6782520;87;20310;-77
2022/07/28 06:58:53;;;;;;;0.50;0.30;;;18.40;99.90;;;;;;6784173;87;20663;-78
2022/07/28 07:08:54;;;;;;;0.85;0.40;;;18.60;99.90;;;;;;6784511;87;20194;-78
2022/07/28 07:18:54;;;;;;;0.82;0.30;;;19.50;99.90;;;;;;6790336;87;20545;-77
2022/07/28 07:28:55;;;;;;;0.68;0.32;;;20.10;98.90;;;;;;6774900;87;20242;-78
2022/07/28 07:38:55;;;;;;;0.45;0.22;;;19.90;98.60;;;;;;6772241;87;20300;-78
2022/07/28 07:48:56;;;;;;;0.60;0.37;;;20.80;98.10;;;;;;6773183;87;20188;-78
2022/07/28 07:58:57;;;;;;;1.80;0.50;;;21.70;96.50;;;;;;6773665;87;20204;-78
2022/07/28 08:08:58;;;;;;;0.70;0.40;;;22.40;94.50;;;;;;6773094;87;20192;-77
2022/07/28 08:18:58;;;;;;;0.90;0.47;;;22.70;92.90;;;;;;6769801;87;20320;-77
2022/07/28 08:28:59;;;;;;;1.05;0.60;;;23.30;91.40;;;;;;6770734;87;20195;-77
2022/07/28 08:38:59;;;;;;;1.37;0.55;;;23.10;91.50;;;;;;6771404;87;20237;-77
2022/07/28 08:49:05;;;;;;;0.50;0.30;;;23.30;91.10;;;;;;6772028;87;20196;-77
2022/07/28 08:59:06;;;;;;;1.35;0.47;;;24.70;89.70;;;;;;6777593;87;20777;-77
2022/07/28 09:09:10;;;;;;;0.70;0.30;;;25.40;87.30;;;;;;6770318;87;20603;-78
2022/07/28 09:19:10;;;;;;;1.17;0.50;;;25.50;86.10;;;;;;6745050;88;20243;-78
2022/07/28 09:29:11;;;;;;;0.80;0.60;;;25.40;85.90;;;;;;6750748;88;20288;-78
2022/07/28 09:39:30;;;;;;;0.62;0.40;;;26.60;84.30;;;;;;6742943;88;20278;-76
2022/07/28 09:49:41;;;;;;;1.00;0.50;;;27.70;81.50;;;;;;6747753;88;20316;-76
2022/07/28 09:59:43;;;;;;;0.75;0.30;;;28.00;79.30;;;;;;6734798;88;20671;-76
2022/07/28 10:09:57;;;;;;;1.77;0.57;;;28.90;75.10;;;;;;6735270;88;20579;-76
2022/07/28 10:19:59;;;;;;;0.77;0.35;;;29.10;76.60;;;;;;6767938;87;20195;-76
2022/07/28 10:30:03;;;;;;;0.70;0.30;;;30.30;72.80;;;;;;6765266;87;20332;-76
2022/07/28 10:40:08;;;;;;;0.73;0.40;;;30.50;72.10;;;;;;6772920;87;20238;-76
2022/07/28 10:50:09;;;;;;;0.98;0.40;;;30.80;71.10;;;;;;6769574;87;20668;-76
2022/07/28 11:00:20;;;;;;;0.60;0.40;;;30.40;69.40;;;;;;6768036;87;20233;-77
2022/07/28 11:10:21;;;;;;;0.80;0.40;;;31.40;68.90;;;;;;6769992;87;20243;-76
2022/07/28 11:20:52;;;;;;;0.63;0.30;;;29.80;67.50;;;;;;6779100;87;20320;-77
2022/07/28 11:30:53;;;;;;;1.00;0.43;;;30.80;69.10;;;;;;6770389;87;20207;-77
2022/07/28 11:40:55;;;;;;;;;;;32.20;67.00;;;;;;6769294;87;20195;-77
2022/07/28 11:51:01;;;;;;;0.80;0.57;;;32.40;66.00;;;;;;6772010;87;20072;-77
2022/07/28 12:01:09;;;;;;;0.68;0.40;;;32.40;66.40;;;;;;6779708;87;20207;-78
2022/07/28 12:11:10;;;;;;;0.88;0.50;;;32.60;65.70;;;;;;6786005;87;20206;-78
2022/07/28 12:21:10;;;;;;;1.00;0.60;;;32.20;64.60;;;;;;6776503;87;20267;-78
2022/07/28 12:31:11;;;;;;;0.70;0.40;;;31.50;65.00;;;;;;6774741;87;20220;-78
2022/07/28 12:41:16;;;;;;;2.43;0.80;;;31.30;66.70;;;;;;6779109;87;20210;-77
2022/07/28 12:51:39;;;;;;;0.90;0.50;;;31.50;65.70;;;;;;6778732;87;20551;-78
2022/07/28 13:01:59;;;;;;;0.70;0.40;;;32.40;65.30;;;;;;6777122;87;20195;-77
2022/07/28 13:12:00;;;;;;;0.98;0.50;;;30.40;67.60;;;;;;6775647;87;20211;-77
2022/07/28 13:22:00;;;;;;;1.17;0.50;;;30.50;66.90;;;;;;6777873;87;20208;-78
2022/07/28 13:32:01;;;;;;;1.57;0.50;;;30.40;66.50;;;;;;6771213;87;20205;-77
2022/07/28 13:42:02;;;;;;;0.77;0.40;;;30.40;67.20;;;;;;6776283;87;20249;-77
2022/07/28 13:52:04;;;;;;;0.90;0.50;;;30.30;67.60;;;;;;6768396;87;20524;-77
2022/07/28 14:02:05;;;;;;;1.75;0.65;;;30.30;66.10;;;;;;6773975;87;20280;-78
2022/07/28 14:12:06;;;;;;;0.70;0.50;;;29.90;66.60;;;;;;6775279;87;20318;-77
2022/07/28 14:22:07;;;;;;;1.37;0.60;;;30.10;67.20;;;;;;6743386;88;20199;-76
2022/07/28 14:32:07;;;;;;;0.80;0.50;;;30.00;66.80;;;;;;6742828;88;20209;-78
2022/07/28 14:42:09;;;;;;;0.93;0.60;;;29.80;66.90;;;;;;6752771;88;20517;-78
2022/07/28 14:52:09;;;;;;;0.90;0.50;;;29.70;67.20;;;;;;6754026;88;20205;-78
2022/07/28 15:02:10;;;;;;;1.02;0.50;;;29.60;66.80;;;;;;6752633;88;20659;-78
2022/07/28 15:12:10;;;;;;;0.93;0.40;;;29.70;67.30;;;;;;6760671;87;20317;-78
2022/07/28 15:22:11;;;;;;;0.90;0.50;;;29.80;67.20;;;;;;6780793;87;20238;-78
2022/07/28 15:32:11;;;;;;;0.90;0.60;;;29.90;68.20;;;;;;6781424;87;20247;-78
2022/07/28 15:42:12;;;;;;;1.80;0.52;;;29.60;67.20;;;;;;6783192;87;20213;-78
2022/07/28 15:52:13;;;;;;;1.10;0.50;;;29.30;67.80;;;;;;6778339;87;20200;-77
2022/07/28 16:02:14;;;;;;;1.75;0.50;;;29.30;68.70;;;;;;6772077;87;20712;-76
2022/07/28 16:12:14;;;;;;;0.80;0.50;;;29.00;68.90;;;;;;6771193;87;20203;-76
2022/07/28 16:22:15;;;;;;;0.88;0.50;;;28.70;68.70;;;;;;6768902;87;21080;-77
2022/07/28 16:32:16;;;;;;;0.90;0.53;;;28.60;68.10;;;;;;6771803;87;20183;-77
2022/07/28 16:42:16;;;;;;;0.70;0.50;;;28.50;68.90;;;;;;6767846;87;20499;-77
2022/07/28 16:52:18;;;;;;;0.98;0.60;;;28.30;68.70;;;;;;6771906;87;20187;-77
2022/07/28 17:02:18;;;;;;;0.70;0.50;;;28.10;69.40;;;;;;6759701;87;20626;-77
2022/07/28 17:12:19;;;;;;;0.80;0.50;;;27.60;70.10;;;;;;6770653;87;20213;-78
2022/07/28 17:22:21;;;;;;;1.42;0.57;;;27.40;69.70;;;;;;6770225;87;20206;-77
2022/07/28 17:32:22;;;;;;;0.87;0.47;;;27.10;71.70;;;;;;6769045;87;20195;-77
2022/07/28 17:42:22;;;;;;;0.80;0.47;;;26.70;72.60;;;;;;6768695;87;20310;-78
2022/07/28 17:52:23;;;;;;;0.75;0.40;;;26.30;74.00;;;;;;6768980;87;20201;-77
2022/07/28 18:02:23;;;;;;;0.77;0.43;;;26.00;75.20;;;;;;6765915;87;20266;-77
2022/07/28 18:12:24;;;;;;;0.60;0.30;;;25.60;75.60;;;;;;6765760;87;20208;-78
2022/07/28 18:22:24;;;;;;;0.80;0.40;;;25.40;77.00;;;;;;6768368;87;20353;-77
2022/07/28 18:32:25;;;;;;;0.70;0.40;;;25.30;77.00;;;;;;6765066;87;20262;-77
2022/07/28 18:42:25;;;;;;;1.15;0.57;;;25.10;76.50;;;;;;6765240;87;20201;-78
2022/07/28 18:52:26;;;;;;;1.58;0.50;;;24.90;77.40;;;;;;6770719;87;20322;-78
2022/07/28 19:02:26;;;;;;;1.00;0.50;;;24.70;77.30;;;;;;6759122;87;20373;-78
2022/07/28 19:12:29;;;;;;;0.90;0.52;;;24.70;77.60;;;;;;6775750;87;20195;-78
2022/07/28 19:22:30;;;;;;;1.07;0.40;;;24.40;78.30;;;;;;6772835;87;20171;-78
2022/07/28 19:32:31;;;;;;;0.70;0.40;;;24.10;78.60;;;;;;6777193;87;20208;-77
2022/07/28 19:42:33;;;;;;;0.87;0.50;;;23.70;80.00;;;;;;6771683;87;20238;-77
2022/07/28 19:52:34;;;;;;;0.77;0.50;;;23.60;80.90;;;;;;6767524;87;20760;-78
2022/07/28 20:02:35;;;;;;;0.77;0.35;;;23.30;80.30;;;;;;6781146;87;20255;-78
2022/07/28 20:12:36;;;;;;;1.00;0.50;;;23.20;80.60;;;;;;6773480;87;20381;-78
2022/07/28 20:22:36;;;;;;;0.90;0.50;;;22.90;83.00;;;;;;6773100;87;20194;-77
2022/07/28 20:32:37;;;;;;;1.20;0.40;;;22.60;82.10;;;;;;6769380;87;20197;-77
2022/07/28 20:42:38;;;;;;;0.98;0.43;;;22.40;83.00;;;;;;6763787;87;20654;-77
2022/07/28 20:52:39;;;;;;;1.58;0.90;;;22.20;83.90;;;;;;6769319;87;20227;-77
2022/07/28 21:02:40;;;;;;;1.98;0.62;;;22.00;85.00;;;;;;6766161;87;20179;-77
2022/07/28 21:12:40;;;;;;;1.23;0.60;;;21.90;85.60;;;;;;6766123;87;20192;-77
2022/07/28 21:22:41;;;;;;;1.00;0.50;;;21.80;86.40;;;;;;6780142;87;20210;-77
2022/07/28 21:32:41;;;;;;;1.00;0.47;;;21.50;87.00;;;;;;6771830;87;20278;-77
2022/07/28 21:42:42;;;;;;;1.05;0.50;;;21.30;88.50;;;;;;6767384;87;20202;-76
2022/07/28 21:52:42;;;;;;;1.00;0.50;;;21.20;90.40;;;;;;6767801;87;20242;-76
2022/07/28 22:02:43;;;;;;;0.88;0.40;;;21.20;90.80;;;;;;6770697;87;20223;-77
2022/07/28 22:12:44;;;;;;;1.37;0.55;;;20.90;91.30;;;;;;6780101;87;20277;-77
2022/07/28 22:22:45;;;;;;;0.98;0.50;;;20.80;91.70;;;;;;6749524;88;20601;-77
2022/07/28 22:32:46;;;;;;;1.00;0.75;;;20.80;92.50;;;;;;6758481;88;20327;-77
2022/07/28 22:53:48;;;;;;;1.10;0.60;;;20.60;94.20;;;;;;6705608;88;20426;-81
2022/07/28 23:03:49;;;;;;;1.20;0.50;;;20.50;95.00;;;;;;6708273;88;20285;-81
2022/07/28 23:13:49;;;;;;;0.90;0.43;;;20.40;96.00;;;;;;6691949;88;20254;-81
2022/07/28 23:23:50;;;;;;;0.90;0.40;;;20.40;96.30;;;;;;6691412;88;20374;-80
2022/07/28 23:33:50;;;;;;;1.17;0.50;;;20.30;97.20;;;;;;6690791;88;20694;-80
2022/07/28 23:43:51;;;;;;;0.98;0.50;;;20.50;98.20;;;;;;6690978;88;20240;-80
2022/07/28 23:53:52;;;;;;;1.10;0.50;;;20.50;98.60;;;;;;6691205;88;20211;-79
